createdAt,value
2018-11-03T00:00:49.254Z,93.99
2018-11-03T00:01:49.248Z,94.20
2018-11-03T00:02:49.235Z,94.20
2018-11-03T00:03:49.235Z,94.24
2018-11-03T00:04:50.760Z,94.10
2018-11-03T00:05:49.206Z,93.73
2018-11-03T00:06:49.190Z,93.93
2018-11-03T00:07:49.204Z,93.93
2018-11-03T00:08:49.188Z,93.93
2018-11-03T00:09:49.165Z,94.24
2018-11-03T00:10:49.585Z,94.35
2018-11-03T00:11:49.137Z,94.04
2018-11-03T00:12:49.131Z,94.14
2018-11-03T00:13:49.125Z,94.04
2018-11-03T00:14:49.112Z,94.45
2018-11-03T00:15:49.096Z,94.45
2018-11-03T00:16:49.130Z,94.45
2018-11-03T00:17:49.127Z,94.66
2018-11-03T00:18:49.065Z,94.45
2018-11-03T00:19:49.052Z,94.29
2018-11-03T00:20:49.038Z,93.73
2018-11-03T00:21:49.029Z,93.83
2018-11-03T00:22:49.051Z,93.73
2018-11-03T00:23:49.010Z,93.87
2018-11-03T00:24:49.005Z,94.39
2018-11-03T00:25:48.985Z,94.14
2018-11-03T00:26:48.977Z,94.35
2018-11-03T00:27:48.975Z,94.29
2018-11-03T00:28:49.010Z,94.35
2018-11-03T00:29:48.951Z,95.02
2018-11-03T00:30:48.940Z,94.45
2018-11-03T00:31:48.939Z,94.76
2018-11-03T00:32:48.916Z,94.66
2018-11-03T00:33:48.922Z,94.76
2018-11-03T00:34:48.936Z,94.66
2018-11-03T00:35:48.879Z,94.56
2018-11-03T00:36:48.872Z,94.31
2018-11-03T00:37:48.860Z,94.76
2018-11-03T00:38:48.861Z,94.24
2018-11-03T00:39:48.846Z,94.35
2018-11-03T00:40:48.905Z,94.24
2018-11-03T00:41:48.831Z,94.76
2018-11-03T00:42:48.866Z,94.76
2018-11-03T00:43:48.801Z,94.45
2018-11-03T00:44:48.785Z,94.04
2018-11-03T00:45:48.790Z,93.93
2018-11-03T00:46:48.823Z,94.39
2018-11-03T00:47:48.781Z,94.14
2018-11-03T00:48:48.758Z,94.49
2018-11-03T00:49:48.742Z,94.49
2018-11-03T00:50:48.725Z,94.29
2018-11-03T00:51:48.714Z,94.92
2018-11-03T00:52:48.742Z,94.70
2018-11-03T00:53:48.692Z,94.81
2018-11-03T00:54:48.697Z,94.70
2018-11-03T00:55:48.669Z,94.81
2018-11-03T00:56:48.664Z,95.23
2018-11-03T00:57:48.653Z,95.43
2018-11-03T00:58:48.689Z,95.08
2018-11-03T00:59:48.628Z,95.02
2018-11-03T01:00:48.624Z,95.08
2018-11-03T01:01:48.605Z,94.56
2018-11-03T01:02:48.615Z,94.49
2018-11-03T01:03:48.588Z,94.29
2018-11-03T01:04:48.606Z,94.39
2018-11-03T01:05:48.565Z,94.29
2018-11-03T01:06:48.561Z,94.39
2018-11-03T01:07:48.548Z,94.49
2018-11-03T01:08:48.544Z,94.49
2018-11-03T01:09:48.517Z,94.76
2018-11-03T01:10:48.611Z,94.81
2018-11-03T01:11:48.501Z,94.76
2018-11-03T01:12:48.488Z,94.81
2018-11-03T01:13:48.475Z,94.92
2018-11-03T01:14:48.465Z,95.12
2018-11-03T01:15:48.474Z,94.81
2018-11-03T01:16:48.493Z,94.92
2018-11-03T01:17:48.432Z,95.12
2018-11-03T01:18:48.421Z,95.08
2018-11-03T01:19:48.410Z,95.64
2018-11-03T01:20:48.402Z,95.75
2018-11-03T01:21:48.422Z,95.95
2018-11-03T01:22:48.410Z,95.54
2018-11-03T01:23:48.445Z,95.12
2018-11-03T01:24:48.357Z,95.23
2018-11-03T01:25:48.358Z,95.02
2018-11-03T01:26:48.342Z,95.23
2018-11-03T01:27:48.329Z,94.92
2018-11-03T01:28:48.368Z,95.43
2018-11-03T01:29:48.308Z,95.64
2018-11-03T01:30:48.300Z,94.81
2018-11-03T01:31:48.288Z,95.02
2018-11-03T01:32:48.272Z,95.12
2018-11-03T01:33:48.281Z,95.02
2018-11-03T01:34:48.535Z,95.23
2018-11-03T01:35:48.241Z,95.02
2018-11-03T01:36:48.236Z,94.92
2018-11-03T01:37:48.224Z,94.70
2018-11-03T01:38:48.212Z,95.08
2018-11-03T01:39:48.216Z,95.43
2018-11-03T01:40:48.219Z,95.33
2018-11-03T01:41:48.177Z,95.75
2018-11-03T01:42:48.166Z,95.54
2018-11-03T01:43:48.160Z,95.50
2018-11-03T01:44:48.147Z,95.50
2018-11-03T01:45:48.148Z,95.02
2018-11-03T01:46:48.173Z,94.92
2018-11-03T01:47:48.122Z,95.43
2018-11-03T01:48:48.108Z,95.50
2018-11-03T01:49:48.101Z,95.39
2018-11-03T01:50:48.093Z,95.43
2018-11-03T01:51:48.072Z,94.92
2018-11-03T01:52:48.095Z,94.92
2018-11-03T01:53:48.066Z,95.43
2018-11-03T01:54:48.040Z,95.60
2018-11-03T01:55:48.033Z,95.43
2018-11-03T01:56:48.026Z,95.18
2018-11-03T01:57:48.004Z,95.43
2018-11-03T01:58:48.041Z,95.54
2018-11-03T01:59:47.993Z,95.50
2018-11-03T02:00:47.973Z,95.29
2018-11-03T02:01:47.964Z,95.29
2018-11-03T02:02:47.971Z,95.50
2018-11-03T02:03:47.944Z,95.60
2018-11-03T02:04:47.970Z,95.81
2018-11-03T02:05:47.920Z,95.29
2018-11-03T02:06:47.915Z,95.91
2018-11-03T02:07:47.917Z,94.62
2018-11-03T02:08:47.893Z,95.25
2018-11-03T02:09:47.884Z,95.03
2018-11-03T02:10:47.913Z,95.08
2018-11-03T02:11:47.866Z,95.08
2018-11-03T02:12:47.846Z,95.18
2018-11-03T02:13:47.835Z,94.93
2018-11-03T02:14:47.847Z,95.14
2018-11-03T02:15:47.826Z,95.14
2018-11-03T02:16:47.857Z,95.45
2018-11-03T02:17:47.805Z,95.14
2018-11-03T02:18:47.782Z,95.56
2018-11-03T02:19:47.772Z,94.82
2018-11-03T02:20:47.790Z,95.14
2018-11-03T02:21:47.757Z,95.03
2018-11-03T02:22:47.784Z,95.03
2018-11-03T02:23:47.733Z,94.72
2018-11-03T02:24:47.717Z,95.25
2018-11-03T02:25:47.711Z,94.82
2018-11-03T02:26:47.706Z,95.56
2018-11-03T02:27:47.718Z,95.76
2018-11-03T02:28:47.719Z,95.25
2018-11-03T02:29:47.669Z,95.35
2018-11-03T02:30:47.664Z,94.72
2018-11-03T02:31:47.647Z,95.03
2018-11-03T02:32:47.633Z,95.03
2018-11-03T02:33:47.623Z,95.39
2018-11-03T02:34:47.673Z,94.93
2018-11-03T02:35:47.600Z,94.87
2018-11-03T02:36:47.593Z,95.03
2018-11-03T02:37:47.579Z,94.98
2018-11-03T02:38:47.580Z,94.98
2018-11-03T02:39:47.563Z,95.08
2018-11-03T02:40:47.608Z,94.98
2018-11-03T02:41:47.536Z,95.39
2018-11-03T02:42:47.525Z,95.08
2018-11-03T02:43:47.517Z,94.87
2018-11-03T02:44:47.504Z,94.76
2018-11-03T02:45:47.493Z,94.66
2018-11-03T02:46:47.531Z,95.08
2018-11-03T02:47:47.477Z,95.60
2018-11-03T02:48:47.468Z,95.50
2018-11-03T02:49:47.451Z,96.12
2018-11-03T02:50:47.442Z,95.97
2018-11-03T02:51:47.461Z,96.12
2018-11-03T02:52:47.482Z,95.29
2018-11-03T02:53:47.413Z,95.50
2018-11-03T02:54:47.419Z,95.39
2018-11-03T02:55:47.396Z,95.18
2018-11-03T02:56:47.377Z,95.60
2018-11-03T02:57:47.385Z,95.35
2018-11-03T02:58:47.401Z,96.22
2018-11-03T02:59:47.350Z,95.81
2018-11-03T03:00:47.356Z,95.76
2018-11-03T03:01:47.330Z,95.70
2018-11-03T03:02:47.320Z,96.08
2018-11-03T03:03:47.304Z,95.66
2018-11-03T03:04:47.363Z,95.76
2018-11-03T03:05:47.280Z,95.56
2018-11-03T03:06:47.292Z,95.87
2018-11-03T03:07:47.269Z,95.97
2018-11-03T03:08:47.253Z,96.18
2018-11-03T03:09:47.237Z,95.97
2018-11-03T03:10:47.278Z,95.87
2018-11-03T03:11:47.225Z,95.87
2018-11-03T03:12:47.209Z,95.97
2018-11-03T03:13:47.210Z,95.76
2018-11-03T03:14:47.186Z,95.87
2018-11-03T03:15:47.180Z,95.97
2018-11-03T03:16:47.210Z,95.66
2018-11-03T03:17:47.158Z,95.66
2018-11-03T03:18:47.140Z,95.66
2018-11-03T03:19:47.151Z,95.76
2018-11-03T03:20:47.124Z,95.66
2018-11-03T03:21:47.109Z,95.45
2018-11-03T03:22:47.133Z,95.56
2018-11-03T03:23:47.090Z,95.87
2018-11-03T03:24:47.078Z,95.66
2018-11-03T03:25:47.088Z,95.87
2018-11-03T03:26:47.055Z,95.87
2018-11-03T03:27:47.047Z,95.56
2018-11-03T03:28:47.152Z,95.76
2018-11-03T03:29:47.025Z,95.97
2018-11-03T03:30:47.023Z,95.76
2018-11-03T03:31:47.020Z,95.76
2018-11-03T03:32:46.990Z,95.45
2018-11-03T03:33:46.982Z,96.22
2018-11-03T03:34:47.000Z,95.76
2018-11-03T03:35:46.967Z,96.08
2018-11-03T03:36:46.953Z,96.18
2018-11-03T03:37:46.946Z,96.39
2018-11-03T03:38:46.928Z,96.53
2018-11-03T03:39:46.923Z,96.33
2018-11-03T03:40:46.956Z,96.64
2018-11-03T03:41:46.893Z,96.95
2018-11-03T03:42:46.885Z,96.53
2018-11-03T03:43:46.877Z,96.95
2018-11-03T03:44:46.872Z,96.95
2018-11-03T03:45:46.855Z,96.75
2018-11-03T03:46:46.905Z,96.75
2018-11-03T03:47:46.837Z,96.64
2018-11-03T03:48:46.823Z,96.85
2018-11-03T03:49:46.815Z,96.53
2018-11-03T03:50:46.808Z,96.43
2018-11-03T03:51:46.793Z,96.95
2018-11-03T03:52:46.842Z,97.16
2018-11-03T03:53:46.768Z,97.27
2018-11-03T03:54:46.765Z,97.16
2018-11-03T03:55:46.751Z,97.06
2018-11-03T03:56:46.740Z,97.16
2018-11-03T03:57:46.733Z,97.16
2018-11-03T03:58:46.752Z,97.16
2018-11-03T03:59:46.720Z,96.53
2018-11-03T04:00:46.701Z,96.85
2018-11-03T04:01:46.686Z,96.95
2018-11-03T04:02:46.671Z,96.75
2018-11-03T04:03:46.665Z,96.12
2018-11-03T04:04:46.732Z,95.95
2018-11-03T04:05:46.637Z,95.91
2018-11-03T04:06:46.643Z,96.33
2018-11-03T04:07:46.633Z,96.37
2018-11-03T04:08:46.611Z,96.16
2018-11-03T04:09:46.599Z,96.16
2018-11-03T04:10:46.745Z,96.16
2018-11-03T04:11:46.582Z,96.58
2018-11-03T04:12:46.573Z,96.89
2018-11-03T04:13:46.578Z,96.58
2018-11-03T04:14:46.560Z,96.69
2018-11-03T04:15:46.532Z,97.00
2018-11-03T04:16:46.580Z,97.10
2018-11-03T04:17:46.526Z,96.37
2018-11-03T04:18:46.509Z,97.10
2018-11-03T04:19:46.488Z,96.79
2018-11-03T04:20:46.482Z,97.00
2018-11-03T04:21:46.468Z,96.69
2018-11-03T04:22:46.498Z,97.00
2018-11-03T04:23:46.450Z,96.58
2018-11-03T04:24:46.439Z,96.69
2018-11-03T04:25:46.424Z,96.37
2018-11-03T04:26:46.418Z,96.26
2018-11-03T04:27:46.414Z,96.06
2018-11-03T04:28:46.470Z,95.75
2018-11-03T04:29:46.387Z,95.58
2018-11-03T04:30:46.380Z,95.48
2018-11-03T04:31:46.365Z,96.06
2018-11-03T04:32:46.357Z,96.21
2018-11-03T04:33:46.339Z,96.31
2018-11-03T04:34:46.381Z,96.31
2018-11-03T04:35:46.339Z,96.21
2018-11-03T04:36:46.312Z,96.31
2018-11-03T04:37:46.299Z,96.42
2018-11-03T04:38:46.307Z,97.35
2018-11-03T04:39:46.281Z,96.73
2018-11-03T04:40:46.326Z,96.73
2018-11-03T04:41:46.253Z,96.52
2018-11-03T04:42:46.247Z,97.30
2018-11-03T04:43:46.250Z,96.88
2018-11-03T04:44:46.229Z,96.83
2018-11-03T04:45:46.218Z,96.77
2018-11-03T04:46:46.261Z,96.67
2018-11-03T04:47:46.196Z,97.19
2018-11-03T04:48:46.179Z,97.40
2018-11-03T04:49:46.184Z,96.36
2018-11-03T04:50:46.163Z,97.19
2018-11-03T04:51:46.148Z,96.98
2018-11-03T04:52:46.196Z,96.67
2018-11-03T04:53:46.135Z,96.77
2018-11-03T04:54:46.123Z,96.98
2018-11-03T04:55:46.112Z,96.67
2018-11-03T04:56:46.101Z,96.98
2018-11-03T04:57:46.107Z,97.13
2018-11-03T04:58:46.111Z,97.24
2018-11-03T04:59:46.082Z,96.71
2018-11-03T05:00:46.062Z,97.13
2018-11-03T05:01:46.044Z,96.92
2018-11-03T05:02:46.043Z,96.61
2018-11-03T05:03:46.039Z,96.50
2018-11-03T05:04:46.082Z,96.40
2018-11-03T05:05:46.007Z,95.78
2018-11-03T05:06:46.005Z,96.13
2018-11-03T05:07:45.983Z,96.34
2018-11-03T05:08:45.974Z,96.34
2018-11-03T05:09:46.018Z,96.13
2018-11-03T05:10:46.007Z,95.82
2018-11-03T05:11:45.942Z,95.82
2018-11-03T05:12:45.934Z,96.23
2018-11-03T05:13:45.924Z,95.92
2018-11-03T05:14:45.903Z,95.92
2018-11-03T05:15:45.890Z,96.23
2018-11-03T05:16:45.926Z,96.23
2018-11-03T05:17:45.873Z,96.28
2018-11-03T05:18:45.865Z,96.03
2018-11-03T05:19:45.864Z,96.23
2018-11-03T05:20:45.846Z,95.65
2018-11-03T05:21:45.835Z,95.86
2018-11-03T05:22:46.124Z,96.17
2018-11-03T05:23:45.805Z,96.17
2018-11-03T05:24:45.805Z,96.38
2018-11-03T05:25:45.789Z,96.38
2018-11-03T05:26:45.793Z,95.34
2018-11-03T05:27:45.764Z,95.90
2018-11-03T05:28:45.796Z,96.38
2018-11-03T05:29:45.764Z,96.17
2018-11-03T05:30:45.733Z,96.17
2018-11-03T05:31:45.729Z,96.33
2018-11-03T05:32:45.721Z,96.01
2018-11-03T05:33:45.708Z,96.22
2018-11-03T05:34:45.746Z,96.53
2018-11-03T05:35:45.690Z,96.53
2018-11-03T05:36:45.670Z,96.74
2018-11-03T05:37:45.663Z,97.58
2018-11-03T05:38:45.668Z,97.37
2018-11-03T05:39:45.638Z,97.16
2018-11-03T05:40:45.673Z,97.27
2018-11-03T05:41:45.628Z,97.16
2018-11-03T05:42:45.614Z,97.05
2018-11-03T05:43:45.605Z,97.78
2018-11-03T05:44:45.592Z,97.89
2018-11-03T05:45:45.577Z,97.58
2018-11-03T05:46:45.624Z,97.89
2018-11-03T05:47:45.564Z,97.68
2018-11-03T05:48:45.544Z,97.52
2018-11-03T05:49:45.529Z,97.68
2018-11-03T05:50:45.522Z,97.68
2018-11-03T05:51:45.516Z,97.47
2018-11-03T05:52:45.672Z,97.58
2018-11-03T05:53:45.489Z,97.27
2018-11-03T05:54:45.475Z,97.37
2018-11-03T05:55:45.499Z,97.16
2018-11-03T05:56:45.454Z,97.37
2018-11-03T05:57:45.483Z,97.16
2018-11-03T05:58:45.533Z,97.16
2018-11-03T05:59:45.424Z,97.10
2018-11-03T06:00:45.435Z,96.84
2018-11-03T06:01:45.406Z,97.37
2018-11-03T06:02:45.402Z,97.47
2018-11-03T06:03:45.439Z,97.20
2018-11-03T06:04:45.414Z,97.00
2018-11-03T06:05:45.364Z,97.16
2018-11-03T06:06:45.357Z,97.10
2018-11-03T06:07:45.376Z,97.00
2018-11-03T06:08:45.394Z,97.20
2018-11-03T06:09:45.332Z,97.20
2018-11-03T06:10:45.355Z,97.00
2018-11-03T06:11:45.302Z,96.89
2018-11-03T06:12:45.284Z,97.31
2018-11-03T06:13:45.288Z,96.89
2018-11-03T06:14:45.267Z,97.20
2018-11-03T06:15:45.365Z,97.72
2018-11-03T06:16:45.302Z,97.41
2018-11-03T06:17:45.241Z,97.72
2018-11-03T06:18:45.227Z,97.83
2018-11-03T06:19:45.214Z,97.52
2018-11-03T06:20:45.204Z,97.52
2018-11-03T06:21:45.238Z,98.04
2018-11-03T06:22:45.248Z,98.10
2018-11-03T06:23:45.207Z,98.04
2018-11-03T06:24:45.157Z,98.62
2018-11-03T06:25:45.146Z,98.62
2018-11-03T06:26:45.171Z,98.52
2018-11-03T06:27:45.148Z,98.31
2018-11-03T06:28:45.166Z,98.47
2018-11-03T06:29:45.109Z,98.21
2018-11-03T06:30:45.099Z,98.21
2018-11-03T06:31:45.095Z,97.99
2018-11-03T06:32:45.084Z,97.47
2018-11-03T06:33:45.068Z,97.05
2018-11-03T06:34:45.113Z,97.27
2018-11-03T06:35:45.038Z,96.84
2018-11-03T06:36:45.034Z,97.05
2018-11-03T06:37:45.019Z,96.84
2018-11-03T06:38:45.051Z,97.27
2018-11-03T06:39:45.009Z,97.27
2018-11-03T06:40:45.067Z,97.05
2018-11-03T06:41:44.975Z,96.84
2018-11-03T06:42:44.975Z,97.58
2018-11-03T06:43:44.957Z,96.74
2018-11-03T06:44:44.941Z,97.16
2018-11-03T06:45:44.942Z,96.95
2018-11-03T06:46:45.063Z,97.05
2018-11-03T06:47:44.916Z,96.80
2018-11-03T06:48:44.904Z,96.33
2018-11-03T06:49:44.887Z,96.11
2018-11-03T06:50:44.876Z,97.47
2018-11-03T06:51:44.957Z,96.91
2018-11-03T06:52:45.054Z,97.22
2018-11-03T06:53:44.848Z,97.01
2018-11-03T06:54:44.855Z,97.32
2018-11-03T06:55:44.827Z,97.53
2018-11-03T06:56:44.819Z,97.32
2018-11-03T06:57:44.822Z,97.11
2018-11-03T06:58:44.855Z,97.17
2018-11-03T06:59:44.784Z,97.07
2018-11-03T07:00:44.782Z,97.80
2018-11-03T07:01:44.767Z,97.49
2018-11-03T07:02:44.753Z,96.97
2018-11-03T07:03:44.755Z,97.28
2018-11-03T07:04:44.781Z,97.55
2018-11-03T07:05:44.724Z,97.59
2018-11-03T07:06:44.706Z,97.44
2018-11-03T07:07:44.700Z,97.55
2018-11-03T07:08:44.687Z,97.44
2018-11-03T07:09:44.683Z,96.92
2018-11-03T07:10:44.732Z,96.82
2018-11-03T07:11:44.714Z,97.13
2018-11-03T07:12:44.977Z,96.98
2018-11-03T07:13:44.632Z,96.36
2018-11-03T07:14:44.625Z,96.19
2018-11-03T07:15:44.621Z,96.15
2018-11-03T07:16:44.638Z,96.46
2018-11-03T07:17:44.590Z,96.25
2018-11-03T07:18:44.580Z,96.25
2018-11-03T07:19:44.574Z,95.89
2018-11-03T07:20:44.657Z,96.25
2018-11-03T07:21:44.628Z,96.21
2018-11-03T07:22:44.590Z,95.83
2018-11-03T07:23:44.566Z,96.00
2018-11-03T07:24:44.552Z,95.89
2018-11-03T07:25:44.559Z,96.11
2018-11-03T07:26:44.505Z,96.21
2018-11-03T07:27:44.491Z,95.64
2018-11-03T07:28:44.537Z,95.43
2018-11-03T07:29:44.590Z,95.43
2018-11-03T07:30:44.457Z,95.43
2018-11-03T07:31:44.475Z,95.43
2018-11-03T07:32:44.456Z,95.75
2018-11-03T07:33:44.422Z,95.18
2018-11-03T07:34:44.617Z,94.87
2018-11-03T07:35:44.395Z,94.98
2018-11-03T07:36:44.396Z,95.03
2018-11-03T07:37:44.373Z,94.62
2018-11-03T07:38:44.371Z,94.20
2018-11-03T07:39:44.379Z,94.31
2018-11-03T07:40:44.409Z,93.99
2018-11-03T07:41:44.337Z,93.99
2018-11-03T07:42:44.407Z,93.85
2018-11-03T07:43:44.348Z,94.26
2018-11-03T07:44:44.312Z,94.06
2018-11-03T07:45:44.294Z,93.54
2018-11-03T07:46:44.322Z,93.54
2018-11-03T07:47:44.348Z,93.39
2018-11-03T07:48:44.357Z,93.18
2018-11-03T07:49:44.259Z,92.72
2018-11-03T07:50:44.316Z,93.03
2018-11-03T07:51:44.313Z,92.93
2018-11-03T07:52:44.278Z,92.82
2018-11-03T07:53:44.223Z,92.61
2018-11-03T07:54:44.219Z,92.57
2018-11-03T07:55:44.193Z,92.57
2018-11-03T07:56:44.173Z,92.68
2018-11-03T07:57:44.183Z,92.43
2018-11-03T07:58:44.204Z,92.22
2018-11-03T07:59:44.151Z,91.66
2018-11-03T08:00:44.307Z,91.97
2018-11-03T08:01:44.128Z,91.18
2018-11-03T08:02:44.116Z,90.93
2018-11-03T08:03:44.098Z,91.03
2018-11-03T08:04:44.127Z,90.58
2018-11-03T08:05:44.135Z,90.52
2018-11-03T08:06:44.060Z,90.52
2018-11-03T08:07:44.051Z,90.27
2018-11-03T08:08:44.037Z,90.69
2018-11-03T08:09:44.028Z,90.95
2018-11-03T08:10:44.074Z,91.16
2018-11-03T08:11:44.065Z,91.27
2018-11-03T08:12:44.017Z,90.54
2018-11-03T08:13:43.991Z,90.50
2018-11-03T08:14:43.981Z,90.08
2018-11-03T08:15:44.071Z,90.50
2018-11-03T08:16:44.042Z,90.39
2018-11-03T08:17:43.950Z,90.39
2018-11-03T08:18:43.930Z,90.35
2018-11-03T08:19:43.932Z,90.14
2018-11-03T08:20:43.907Z,90.35
2018-11-03T08:21:43.904Z,90.45
2018-11-03T08:22:43.931Z,90.31
2018-11-03T08:23:43.879Z,89.58
2018-11-03T08:24:43.867Z,88.20
2018-11-03T08:25:43.853Z,88.40
2018-11-03T08:26:43.842Z,88.71
2018-11-03T08:27:43.840Z,88.61
2018-11-03T08:28:43.869Z,88.61
2018-11-03T08:29:43.808Z,88.36
2018-11-03T08:30:43.797Z,88.67
2018-11-03T08:31:44.014Z,87.54
2018-11-03T08:32:43.786Z,88.01
2018-11-03T08:33:43.812Z,89.04
2018-11-03T08:34:44.139Z,88.12
2018-11-03T08:35:43.880Z,87.91
2018-11-03T08:36:43.872Z,88.28
2018-11-03T08:37:43.955Z,88.39
2018-11-03T08:38:43.726Z,88.64
2018-11-03T08:39:43.833Z,89.01
2018-11-03T08:40:43.859Z,88.24
2018-11-03T08:41:43.699Z,88.34
2018-11-03T08:42:43.690Z,88.24
2018-11-03T08:43:43.697Z,87.83
2018-11-03T08:44:43.660Z,87.27
2018-11-03T08:45:43.674Z,87.07
2018-11-03T08:46:43.689Z,87.37
2018-11-03T08:47:43.616Z,86.65
2018-11-03T08:48:43.696Z,86.34
2018-11-03T08:49:43.751Z,86.24
2018-11-03T08:50:43.681Z,85.52
2018-11-03T08:51:43.885Z,86.03
2018-11-03T08:52:43.713Z,85.52
2018-11-03T08:53:43.763Z,85.62
2018-11-03T08:54:43.597Z,85.31
2018-11-03T08:55:43.533Z,85.21
2018-11-03T08:56:43.605Z,84.48
2018-11-03T08:57:43.522Z,84.44
2018-11-03T08:58:43.595Z,84.59
2018-11-03T08:59:43.693Z,84.28
2018-11-03T09:00:43.475Z,84.44
2018-11-03T09:01:43.514Z,84.34
2018-11-03T09:02:43.517Z,84.65
2018-11-03T09:03:43.491Z,84.44
2018-11-03T09:04:43.489Z,84.89
2018-11-03T09:05:43.433Z,84.55
2018-11-03T09:06:43.462Z,85.21
2018-11-03T09:07:43.424Z,84.86
2018-11-03T09:08:43.426Z,84.55
2018-11-03T09:09:43.416Z,84.38
2018-11-03T09:10:43.420Z,84.86
2018-11-03T09:11:43.364Z,85.06
2018-11-03T09:12:43.357Z,84.86
2018-11-03T09:13:43.359Z,84.75
2018-11-03T09:14:43.369Z,84.86
2018-11-03T09:15:43.335Z,85.37
2018-11-03T09:16:43.406Z,85.27
2018-11-03T09:17:43.330Z,85.37
2018-11-03T09:18:43.337Z,85.64
2018-11-03T09:19:43.279Z,85.23
2018-11-03T09:20:43.264Z,85.54
2018-11-03T09:21:43.344Z,84.61
2018-11-03T09:22:43.375Z,85.02
2018-11-03T09:23:43.239Z,85.54
2018-11-03T09:24:43.236Z,85.23
2018-11-03T09:25:43.293Z,85.09
2018-11-03T09:26:43.211Z,85.30
2018-11-03T09:27:43.252Z,85.71
2018-11-03T09:28:43.266Z,84.57
2018-11-03T09:29:43.197Z,84.64
2018-11-03T09:30:43.183Z,84.57
2018-11-03T09:31:43.152Z,83.91
2018-11-03T09:32:43.154Z,84.43
2018-11-03T09:33:43.144Z,84.39
2018-11-03T09:34:43.219Z,84.39
2018-11-03T09:35:43.106Z,84.29
2018-11-03T09:36:43.137Z,83.87
2018-11-03T09:37:43.074Z,83.87
2018-11-03T09:38:43.150Z,83.47
2018-11-03T09:39:43.072Z,83.56
2018-11-03T09:40:43.101Z,83.26
2018-11-03T09:41:43.054Z,83.53
2018-11-03T09:42:43.037Z,83.32
2018-11-03T09:43:43.086Z,83.18
2018-11-03T09:44:43.127Z,82.97
2018-11-03T09:45:43.014Z,83.28
2018-11-03T09:46:43.085Z,83.04
2018-11-03T09:47:42.963Z,82.53
2018-11-03T09:48:43.035Z,81.49
2018-11-03T09:49:42.940Z,79.75
2018-11-03T09:50:43.063Z,80.16
2018-11-03T09:51:42.929Z,79.71
2018-11-03T09:52:43.031Z,78.58
2018-11-03T09:53:42.935Z,78.27
2018-11-03T09:54:42.896Z,79.19
2018-11-03T09:55:42.876Z,78.37
2018-11-03T09:56:42.952Z,78.33
2018-11-03T09:57:42.895Z,78.89
2018-11-03T09:58:42.966Z,78.44
2018-11-03T09:59:42.846Z,78.06
2018-11-03T10:00:42.824Z,77.41
2018-11-03T10:01:42.846Z,76.28
2018-11-03T10:02:42.976Z,77.00
2018-11-03T10:03:42.838Z,78.13
2018-11-03T10:04:42.906Z,77.20
2018-11-03T10:05:42.821Z,77.51
2018-11-03T10:06:42.845Z,76.97
2018-11-03T10:07:42.761Z,76.65
2018-11-03T10:08:42.756Z,76.97
2018-11-03T10:09:42.749Z,77.34
2018-11-03T10:10:42.827Z,77.17
2018-11-03T10:11:42.703Z,76.14
2018-11-03T10:12:42.696Z,75.70
2018-11-03T10:13:42.685Z,75.90
2018-11-03T10:14:42.855Z,76.21
2018-11-03T10:15:42.742Z,76.51
2018-11-03T10:16:42.867Z,75.80
2018-11-03T10:17:42.749Z,75.59
2018-11-03T10:18:42.756Z,75.70
2018-11-03T10:19:42.693Z,75.80
2018-11-03T10:20:42.630Z,75.49
2018-11-03T10:21:42.630Z,75.38
2018-11-03T10:22:42.703Z,75.18
2018-11-03T10:23:42.580Z,75.08
2018-11-03T10:24:42.650Z,74.94
2018-11-03T10:25:42.558Z,75.45
2018-11-03T10:26:42.560Z,75.35
2018-11-03T10:27:42.535Z,75.45
2018-11-03T10:28:42.579Z,75.04
2018-11-03T10:29:42.514Z,74.70
2018-11-03T10:30:42.494Z,74.19
2018-11-03T10:31:42.489Z,73.78
2018-11-03T10:32:42.482Z,73.44
2018-11-03T10:33:42.574Z,73.36
2018-11-03T10:34:42.500Z,74.05
2018-11-03T10:35:42.443Z,73.74
2018-11-03T10:36:42.425Z,72.20
2018-11-03T10:37:42.437Z,72.07
2018-11-03T10:38:42.423Z,72.58
2018-11-03T10:39:42.449Z,71.56
2018-11-03T10:40:42.601Z,71.35
2018-11-03T10:41:42.439Z,71.35
2018-11-03T10:42:42.362Z,71.66
2018-11-03T10:43:42.560Z,71.97
2018-11-03T10:44:42.344Z,71.45
2018-11-03T10:45:42.376Z,71.45
2018-11-03T10:46:42.383Z,71.11
2018-11-03T10:47:42.313Z,70.64
2018-11-03T10:48:42.353Z,70.22
2018-11-03T10:49:42.284Z,70.29
2018-11-03T10:50:42.304Z,69.47
2018-11-03T10:51:42.321Z,69.27
2018-11-03T10:52:42.289Z,69.06
2018-11-03T10:53:42.356Z,69.68
2018-11-03T10:54:42.229Z,68.52
2018-11-03T10:55:42.220Z,68.73
2018-11-03T10:56:42.225Z,67.90
2018-11-03T10:57:42.218Z,66.37
2018-11-03T10:58:42.236Z,66.27
2018-11-03T10:59:42.174Z,65.93
2018-11-03T11:00:42.166Z,66.34
2018-11-03T11:01:42.164Z,65.93
2018-11-03T11:02:42.154Z,67.16
2018-11-03T11:03:42.251Z,67.74
2018-11-03T11:04:42.164Z,66.31
2018-11-03T11:05:42.152Z,65.56
2018-11-03T11:06:42.109Z,64.16
2018-11-03T11:07:42.088Z,64.54
2018-11-03T11:08:42.086Z,64.87
2018-11-03T11:09:42.083Z,66.10
2018-11-03T11:10:42.226Z,64.74
2018-11-03T11:11:42.055Z,62.18
2018-11-03T11:12:42.036Z,63.24
2018-11-03T11:13:42.046Z,63.41
2018-11-03T11:14:42.035Z,63.72
2018-11-03T11:15:42.032Z,62.83
2018-11-03T11:16:42.115Z,62.59
2018-11-03T11:17:41.983Z,62.52
2018-11-03T11:18:41.970Z,63.34
2018-11-03T11:19:41.957Z,63.31
2018-11-03T11:20:41.947Z,63.54
2018-11-03T11:21:41.996Z,63.03
2018-11-03T11:22:41.958Z,62.83
2018-11-03T11:23:42.003Z,64.33
2018-11-03T11:24:41.979Z,63.92
2018-11-03T11:25:41.891Z,62.93
2018-11-03T11:26:41.885Z,63.92
2018-11-03T11:27:41.894Z,64.23
2018-11-03T11:28:41.893Z,64.71
2018-11-03T11:29:41.862Z,61.77
2018-11-03T11:30:41.838Z,63.00
2018-11-03T11:31:41.827Z,63.51
2018-11-03T11:32:41.841Z,63.41
2018-11-03T11:33:41.831Z,62.70
2018-11-03T11:34:41.841Z,62.90
2018-11-03T11:35:41.785Z,63.07
2018-11-03T11:36:41.778Z,63.31
2018-11-03T11:37:41.880Z,63.00
2018-11-03T11:38:41.781Z,63.21
2018-11-03T11:39:41.767Z,63.62
2018-11-03T11:40:41.775Z,63.72
2018-11-03T11:41:41.728Z,62.90
2018-11-03T11:42:41.733Z,63.00
2018-11-03T11:43:41.708Z,61.54
2018-11-03T11:44:41.685Z,60.03
2018-11-03T11:45:41.694Z,59.12
2018-11-03T11:46:41.726Z,59.73
2018-11-03T11:47:41.653Z,60.35
2018-11-03T11:48:41.641Z,61.16
2018-11-03T11:49:41.629Z,61.16
2018-11-03T11:50:41.618Z,60.03
2018-11-03T11:51:41.626Z,60.52
2018-11-03T11:52:41.659Z,61.36
2018-11-03T11:53:41.616Z,59.50
2018-11-03T11:54:41.609Z,58.70
2018-11-03T11:55:41.571Z,58.70
2018-11-03T11:56:41.586Z,57.99
2018-11-03T11:57:41.546Z,58.29
2018-11-03T11:58:41.595Z,58.29
2018-11-03T11:59:41.526Z,59.12
2018-11-03T12:00:41.610Z,59.12
2018-11-03T12:01:41.495Z,56.97
2018-11-03T12:02:41.582Z,57.48
2018-11-03T12:03:41.514Z,58.50
2018-11-03T12:04:41.531Z,58.20
2018-11-03T12:05:41.525Z,57.99
2018-11-03T12:06:41.458Z,57.99
2018-11-03T12:07:41.441Z,58.29
2018-11-03T12:08:41.482Z,58.70
2018-11-03T12:09:41.417Z,59.22
2018-11-03T12:10:41.471Z,59.94
2018-11-03T12:11:41.448Z,59.73
2018-11-03T12:12:41.440Z,58.09
2018-11-03T12:13:41.405Z,57.48
2018-11-03T12:14:41.418Z,57.38
2018-11-03T12:15:41.363Z,57.48
2018-11-03T12:16:41.471Z,58.20
2018-11-03T12:17:41.376Z,58.09
2018-11-03T12:18:41.326Z,57.07
2018-11-03T12:19:41.321Z,57.38
2018-11-03T12:20:41.367Z,57.58
2018-11-03T12:21:41.357Z,57.79
2018-11-03T12:22:41.477Z,56.25
2018-11-03T12:23:41.268Z,57.28
2018-11-03T12:24:41.257Z,56.56
2018-11-03T12:25:41.309Z,56.56
2018-11-03T12:26:41.267Z,56.66
2018-11-03T12:27:41.207Z,56.05
2018-11-03T12:28:41.258Z,56.87
2018-11-03T12:29:41.191Z,56.87
2018-11-03T12:30:41.240Z,56.46
2018-11-03T12:31:41.171Z,54.61
2018-11-03T12:32:41.164Z,54.61
2018-11-03T12:33:41.148Z,55.02
2018-11-03T12:34:41.182Z,56.25
2018-11-03T12:35:41.314Z,56.46
2018-11-03T12:36:41.217Z,56.66
2018-11-03T12:37:41.105Z,56.76
2018-11-03T12:38:41.270Z,57.17
2018-11-03T12:39:41.174Z,57.68
2018-11-03T12:40:41.309Z,57.58
2018-11-03T12:41:41.091Z,57.38
2018-11-03T12:42:41.041Z,56.97
2018-11-03T12:43:41.044Z,57.30
2018-11-03T12:44:41.164Z,56.35
2018-11-03T12:45:41.053Z,56.66
2018-11-03T12:46:41.299Z,57.20
2018-11-03T12:47:41.095Z,57.51
2018-11-03T12:48:40.980Z,57.38
2018-11-03T12:49:41.205Z,56.05
2018-11-03T12:50:40.963Z,56.46
2018-11-03T12:51:41.058Z,55.97
2018-11-03T12:52:41.005Z,56.28